createdAt,value
2024-02-24T00:02:29.435Z,10.24
2024-02-24T00:22:32.513Z,10.13
2024-02-24T00:42:35.494Z,9.88
2024-02-24T01:02:38.428Z,9.50
2024-02-24T01:22:41.428Z,9.84
2024-02-24T01:42:44.704Z,10.28
2024-02-24T02:02:47.642Z,10.52
2024-02-24T02:22:50.523Z,10.60
2024-02-24T02:42:53.491Z,10.40
2024-02-24T03:02:56.493Z,10.26
2024-02-24T03:22:59.409Z,10.43
2024-02-24T03:43:02.276Z,10.41
2024-02-24T04:03:06.192Z,10.61
2024-02-24T04:23:08.937Z,10.86
2024-02-24T04:43:11.927Z,10.87
2024-02-24T05:03:15.017Z,10.82
2024-02-24T05:23:18.018Z,10.91
2024-02-24T05:43:20.958Z,10.89
2024-02-24T06:03:25.114Z,11.02
2024-02-24T06:23:28.216Z,11.22
2024-02-24T06:43:31.221Z,11.48
2024-02-24T07:03:35.257Z,10.53
2024-02-24T07:23:38.397Z,9.66
2024-02-24T07:43:41.381Z,9.01
2024-02-24T08:03:44.194Z,8.33
2024-02-24T08:23:48.070Z,8.79
2024-02-24T08:43:51.045Z,8.44
2024-02-24T09:03:54.104Z,8.44
2024-02-24T09:23:57.008Z,8.86
2024-02-24T09:43:59.728Z,10.02
2024-02-24T10:04:02.542Z,10.56
2024-02-24T10:24:05.416Z,10.03
2024-02-24T10:44:18.445Z,10.25
2024-02-24T11:04:25.672Z,11.52
2024-02-24T11:24:28.610Z,11.30
2024-02-24T11:44:31.391Z,11.64
2024-02-24T12:04:34.330Z,11.25
2024-02-24T12:24:37.390Z,12.03
2024-02-24T12:44:40.406Z,12.71
2024-02-24T13:04:43.173Z,11.84
2024-02-24T13:24:46.170Z,11.40
2024-02-24T13:44:48.947Z,11.97
2024-02-24T14:04:51.739Z,12.29
2024-02-24T14:24:54.440Z,12.17
2024-02-24T14:45:07.250Z,11.67
2024-02-24T15:26:00.806Z,11.27
2024-02-24T15:46:04.725Z,10.83
2024-02-24T16:06:07.644Z,10.36
2024-02-24T16:26:10.490Z,9.59
2024-02-24T16:46:14.024Z,9.21
2024-02-24T17:06:17.448Z,8.78
2024-02-24T17:26:20.209Z,8.55
2024-02-24T17:46:23.041Z,8.09
2024-02-24T18:06:26.292Z,8.05
2024-02-24T18:26:29.504Z,7.56
2024-02-24T18:46:32.235Z,7.71
2024-02-24T19:06:45.173Z,7.60
2024-02-24T19:26:48.445Z,7.39
2024-02-24T19:46:52.143Z,6.89
2024-02-24T20:06:56.226Z,6.94
2024-02-24T20:26:59.208Z,6.51
2024-02-24T20:47:01.978Z,6.56
2024-02-24T21:07:06.783Z,6.07
2024-02-24T21:27:09.520Z,5.66
2024-02-24T21:47:13.310Z,5.90
2024-02-24T22:07:16.000Z,6.06
2024-02-24T22:27:20.884Z,6.14
2024-02-24T22:47:23.753Z,6.16
2024-02-24T23:07:26.701Z,6.15
2024-02-24T23:27:31.471Z,6.53
2024-02-24T23:47:34.345Z,7.02
